Mozart, Arkansas
Current Conditions -  °F | °C
As of 6:15 PM on Monday 20 Oct 2014 (Local Time) from KBVX Reporting Station
Clear Clear  
Wind Chill: 19°   Ceiling: Unl
Heat Index: 19°   Visibility: 10mi
Dew Point: 14°   Wind: 6mph
Humidity: 73%   Direction: 250°WSW
Pressure: 30"   Gusts: NA
Location:  35.7627°N, 92.308°W
Report Text: KBVX 202315Z AUTO 25005KT 10SM CLR 19/14 A3000 RMK AO1
Loading
Personal Weather Stations






























Interactive Weather Map
Tropical Storm Tracking
New forecast layout! Learn more

10-Day Weather Forecast

Advertisements
Track Severe Weather on mobile